Time;durP1;ratioP1;P1;durP2;ratioP2;P2;SDS_P1;SDS_P2;PMS_P1;PMS_P2;Temp;Humidity;BMP_temperature;BMP_pressure;BME280_temperature;BME280_humidity;BME280_pressure;Samples;Min_cycle;Max_cycle;Signal;HPM_P1;HPM_P2
2021/09/13 00:01:49;;;;;;;5.43;4.80;;;15.70;98.30;;;;;;5171851;23;20518;-83
2021/09/13 00:03:52;;;;;;;7.90;5.10;;;15.70;98.30;;;;;;5184241;23;20424;-83
2021/09/13 00:05:56;;;;;;;8.57;5.40;;;15.60;98.30;;;;;;5179557;23;20423;-83
2021/09/13 00:08:01;;;;;;;6.63;4.70;;;15.50;98.30;;;;;;5179094;23;20502;-84
2021/09/13 00:10:06;;;;;;;7.07;4.70;;;15.50;98.30;;;;;;5177845;23;20948;-83
2021/09/13 00:12:09;;;;;;;9.07;4.67;;;15.50;98.30;;;;;;5178727;23;20428;-83
2021/09/13 00:14:12;;;;;;;14.67;4.97;;;15.50;98.30;;;;;;5180454;23;20511;-83
2021/09/13 00:16:15;;;;;;;8.93;4.53;;;15.50;98.30;;;;;;5181163;23;20781;-85
2021/09/13 00:18:18;;;;;;;8.90;4.50;;;15.50;98.30;;;;;;5179032;23;20427;-85
2021/09/13 00:20:22;;;;;;;7.10;4.83;;;15.40;98.30;;;;;;5181907;23;20535;-84
2021/09/13 00:22:25;;;;;;;6.47;5.00;;;15.40;98.30;;;;;;5173348;23;20454;-83
2021/09/13 00:24:29;;;;;;;11.57;5.10;;;15.40;98.30;;;;;;5180864;23;20444;-85
2021/09/13 00:26:32;;;;;;;10.73;4.90;;;15.40;98.30;;;;;;5181969;23;20483;-84
2021/09/13 00:28:35;;;;;;;6.60;4.97;;;15.40;98.30;;;;;;5182215;23;20523;-83
2021/09/13 00:30:38;;;;;;;6.20;4.70;;;15.40;98.30;;;;;;5173494;23;20454;-83
2021/09/13 00:32:41;;;;;;;5.27;4.77;;;15.30;98.30;;;;;;5181998;23;20450;-83
2021/09/13 00:34:44;;;;;;;5.60;4.87;;;15.30;98.30;;;;;;5180691;23;20428;-83
2021/09/13 00:36:47;;;;;;;7.40;5.17;;;15.30;98.30;;;;;;5182375;23;20416;-84
2021/09/13 00:38:51;;;;;;;8.27;5.57;;;15.30;98.30;;;;;;5184284;23;20420;-83
2021/09/13 00:40:55;;;;;;;7.67;5.17;;;15.30;98.30;;;;;;5184367;23;20518;-83
2021/09/13 00:43:01;;;;;;;8.20;4.97;;;15.30;98.30;;;;;;5182097;23;20535;-83
2021/09/13 00:45:05;;;;;;;5.80;4.70;;;15.30;98.30;;;;;;5181799;23;20428;-85
2021/09/13 00:47:08;;;;;;;5.67;4.80;;;15.30;98.30;;;;;;5182551;23;20523;-83
2021/09/13 00:49:11;;;;;;;5.20;4.70;;;15.30;98.30;;;;;;5183641;23;20443;-83
2021/09/13 00:51:14;;;;;;;8.53;5.67;;;15.30;98.30;;;;;;5184307;23;20448;-83
2021/09/13 00:53:17;;;;;;;11.23;5.43;;;15.30;98.30;;;;;;5184814;23;20439;-83
2021/09/13 00:55:28;;;;;;;10.70;6.30;;;15.30;98.30;;;;;;5185291;23;20491;-83
2021/09/13 00:57:33;;;;;;;9.83;4.93;;;15.30;98.30;;;;;;5184576;23;20519;-83
2021/09/13 00:59:36;;;;;;;8.77;5.60;;;15.30;98.30;;;;;;5185818;23;20432;-83
2021/09/13 01:01:39;;;;;;;11.00;5.70;;;15.30;98.30;;;;;;5186703;23;20447;-84
2021/09/13 01:03:43;;;;;;;8.10;5.50;;;15.40;98.30;;;;;;5186490;23;20424;-83
2021/09/13 01:05:47;;;;;;;10.87;5.97;;;15.40;98.30;;;;;;5179060;23;20455;-83
2021/09/13 01:07:51;;;;;;;8.67;5.60;;;15.40;98.30;;;;;;5187781;23;20423;-83
2021/09/13 01:09:55;;;;;;;8.20;5.50;;;15.40;98.30;;;;;;5183634;23;20447;-82
2021/09/13 01:11:58;;;;;;;10.60;5.87;;;15.40;98.30;;;;;;5183539;23;20511;-85
2021/09/13 01:14:02;;;;;;;9.13;6.23;;;15.40;98.30;;;;;;5173733;23;20450;-83
2021/09/13 01:16:06;;;;;;;10.47;5.67;;;15.40;98.30;;;;;;5175274;23;20436;-83
2021/09/13 01:18:10;;;;;;;11.80;5.70;;;15.40;98.30;;;;;;5182568;23;20808;-83
2021/09/13 01:20:13;;;;;;;10.87;6.20;;;15.40;98.30;;;;;;5180940;23;20439;-83
2021/09/13 01:22:19;;;;;;;11.40;5.70;;;15.50;98.30;;;;;;5181679;23;21195;-82
2021/09/13 01:24:23;;;;;;;11.17;5.80;;;15.50;98.30;;;;;;5179919;23;20438;-83
2021/09/13 01:26:26;;;;;;;18.03;5.40;;;15.60;98.30;;;;;;5172749;23;20455;-82
2021/09/13 01:28:30;;;;;;;7.53;5.93;;;15.60;98.30;;;;;;5180333;23;20420;-82
2021/09/13 01:30:33;;;;;;;7.40;5.03;;;15.60;98.30;;;;;;5180521;23;20884;-84
2021/09/13 01:32:36;;;;;;;8.17;5.50;;;15.70;98.30;;;;;;5180253;23;20454;-83
2021/09/13 01:34:39;;;;;;;9.63;5.90;;;15.70;98.30;;;;;;5180787;23;20451;-83
2021/09/13 01:36:42;;;;;;;8.20;5.60;;;15.70;98.30;;;;;;5181584;23;20507;-83
2021/09/13 01:38:45;;;;;;;8.70;6.00;;;15.80;98.30;;;;;;5181571;23;20424;-82
2021/09/13 01:40:50;;;;;;;7.90;5.87;;;15.70;98.30;;;;;;5173733;23;20526;-82
2021/09/13 01:42:58;;;;;;;8.80;6.57;;;15.70;98.30;;;;;;5182106;23;20429;-83
2021/09/13 01:45:01;;;;;;;7.67;5.37;;;15.70;98.30;;;;;;5172742;23;20412;-84
2021/09/13 01:47:05;;;;;;;10.20;6.03;;;15.70;98.30;;;;;;5181642;23;20945;-84
2021/09/13 01:49:09;;;;;;;11.30;6.17;;;15.70;98.30;;;;;;5172096;23;20463;-82
2021/09/13 01:51:12;;;;;;;9.53;6.40;;;15.80;98.30;;;;;;5172435;23;20462;-85
2021/09/13 01:53:15;;;;;;;9.77;7.20;;;15.80;98.30;;;;;;5182037;23;20424;-83
2021/09/13 01:55:18;;;;;;;9.20;7.63;;;15.80;98.30;;;;;;5180468;23;20919;-85
2021/09/13 01:57:22;;;;;;;7.97;5.83;;;15.80;98.30;;;;;;5180956;23;20428;-83
2021/09/13 01:59:28;;;;;;;9.33;6.37;;;15.80;98.30;;;;;;5180661;23;20423;-83
2021/09/13 02:01:31;;;;;;;12.00;6.60;;;15.80;98.30;;;;;;5181432;23;20452;-83
2021/09/13 02:03:34;;;;;;;8.50;6.70;;;15.90;98.30;;;;;;5182295;23;20507;-84
2021/09/13 02:05:37;;;;;;;9.20;7.30;;;15.90;98.30;;;;;;5175550;23;20431;-83
2021/09/13 02:07:40;;;;;;;7.63;6.90;;;15.90;98.30;;;;;;5183507;23;20430;-83
2021/09/13 02:09:44;;;;;;;7.17;6.40;;;15.80;98.30;;;;;;5176555;23;20458;-83
2021/09/13 02:11:47;;;;;;;9.83;6.97;;;15.80;98.30;;;;;;5183038;23;20519;-83
2021/09/13 02:13:51;;;;;;;12.60;6.93;;;15.80;98.30;;;;;;5178193;23;20503;-83
2021/09/13 02:15:54;;;;;;;9.40;7.10;;;15.90;98.30;;;;;;5171099;23;20436;-83
2021/09/13 02:17:57;;;;;;;11.63;6.70;;;15.90;98.30;;;;;;5178676;23;20447;-83
2021/09/13 02:20:00;;;;;;;12.90;6.50;;;15.90;98.30;;;;;;5180205;23;20826;-83
2021/09/13 02:22:04;;;;;;;9.73;6.60;;;15.90;98.30;;;;;;5172307;23;20948;-82
2021/09/13 02:24:07;;;;;;;8.73;6.27;;;16.00;98.30;;;;;;5177729;23;20419;-83
2021/09/13 02:26:10;;;;;;;12.40;6.40;;;16.00;98.30;;;;;;5178453;23;20798;-83
2021/09/13 02:28:13;;;;;;;10.00;6.07;;;16.00;98.30;;;;;;5179511;23;20412;-83
2021/09/13 02:30:17;;;;;;;6.83;5.70;;;16.00;98.30;;;;;;5170088;23;20526;-82
2021/09/13 02:32:20;;;;;;;10.50;6.33;;;16.00;98.30;;;;;;5170981;23;20728;-83
2021/09/13 02:34:23;;;;;;;9.87;6.70;;;15.90;98.30;;;;;;5178225;23;20423;-82
2021/09/13 02:36:26;;;;;;;11.77;6.20;;;15.90;98.30;;;;;;5170621;23;20424;-83
2021/09/13 02:38:29;;;;;;;10.70;5.97;;;16.00;98.30;;;;;;5171892;23;20432;-83
2021/09/13 02:40:32;;;;;;;8.30;5.90;;;16.00;98.30;;;;;;5178919;23;20459;-83
2021/09/13 02:42:36;;;;;;;8.77;5.83;;;16.00;98.30;;;;;;5180777;23;20431;-83
2021/09/13 02:44:39;;;;;;;11.37;7.10;;;16.00;98.30;;;;;;5171735;23;20447;-84
2021/09/13 02:46:43;;;;;;;10.60;7.83;;;16.00;98.30;;;;;;5181766;23;20458;-84
2021/09/13 02:48:46;;;;;;;12.13;7.90;;;15.90;98.30;;;;;;5180238;23;20416;-83
2021/09/13 02:50:49;;;;;;;10.70;7.50;;;15.90;98.30;;;;;;5173389;23;20509;-84
2021/09/13 02:52:52;;;;;;;12.23;7.87;;;15.90;98.30;;;;;;5180571;23;21082;-83
2021/09/13 02:54:55;;;;;;;16.50;8.60;;;15.90;98.30;;;;;;5181570;23;20905;-83
2021/09/13 02:56:58;;;;;;;12.00;8.73;;;15.90;98.30;;;;;;5183378;23;20487;-83
2021/09/13 02:59:01;;;;;;;13.20;7.87;;;15.90;98.30;;;;;;5181701;23;20447;-83
2021/09/13 03:01:04;;;;;;;14.10;8.87;;;15.90;98.30;;;;;;5182846;23;20908;-84
2021/09/13 03:03:09;;;;;;;12.33;8.80;;;15.90;98.30;;;;;;5182978;23;20428;-84
2021/09/13 03:05:12;;;;;;;15.13;9.67;;;15.90;98.30;;;;;;5182270;23;20470;-85
2021/09/13 03:07:15;;;;;;;15.70;9.97;;;16.00;98.30;;;;;;5173590;23;20434;-83
2021/09/13 03:09:18;;;;;;;16.30;10.10;;;15.90;98.30;;;;;;5183843;23;20491;-84
2021/09/13 03:11:22;;;;;;;18.40;10.67;;;15.90;98.30;;;;;;5184152;23;20450;-83
2021/09/13 03:13:26;;;;;;;14.03;10.63;;;15.90;98.30;;;;;;5182118;23;20522;-84
2021/09/13 03:15:29;;;;;;;13.30;9.63;;;15.90;98.30;;;;;;5175007;23;20427;-84
2021/09/13 03:17:33;;;;;;;14.90;9.80;;;15.90;98.30;;;;;;5183705;23;20801;-84
2021/09/13 03:19:37;;;;;;;17.20;11.17;;;15.90;98.30;;;;;;5178014;23;20448;-83
2021/09/13 03:21:40;;;;;;;20.30;10.60;;;16.00;98.30;;;;;;5178978;23;20514;-84
2021/09/13 03:23:43;;;;;;;14.50;9.83;;;16.10;98.30;;;;;;5177921;23;20423;-83
2021/09/13 03:25:47;;;;;;;15.10;9.43;;;16.10;98.30;;;;;;5178443;23;20443;-83
2021/09/13 03:27:50;;;;;;;20.27;9.80;;;16.10;98.30;;;;;;5178372;23;20448;-84
2021/09/13 03:29:53;;;;;;;18.20;10.30;;;16.20;98.30;;;;;;5177223;23;20439;-84
2021/09/13 03:31:56;;;;;;;13.33;8.90;;;16.30;98.30;;;;;;5178861;23;20515;-84
2021/09/13 03:33:59;;;;;;;12.93;9.53;;;16.30;98.30;;;;;;5179766;23;20428;-84
2021/09/13 03:36:05;;;;;;;14.07;8.90;;;16.40;98.30;;;;;;5178143;23;20499;-84
2021/09/13 03:38:08;;;;;;;14.93;9.73;;;16.40;98.30;;;;;;5181415;23;20451;-84
2021/09/13 03:44:37;;;;;;;12.20;8.10;;;16.40;98.30;;;;;;5119224;22;21143;-80
2021/09/13 03:46:40;;;;;;;11.70;8.60;;;16.40;98.30;;;;;;5188777;23;20423;-80
2021/09/13 03:48:44;;;;;;;10.13;7.77;;;16.40;98.30;;;;;;5187742;23;20487;-81
2021/09/13 03:50:47;;;;;;;11.40;8.03;;;16.40;98.30;;;;;;5183217;23;20467;-81
2021/09/13 03:52:51;;;;;;;11.20;8.10;;;16.40;98.30;;;;;;5179257;23;20475;-80
2021/09/13 03:54:54;;;;;;;12.00;8.63;;;16.40;98.30;;;;;;5178541;23;20427;-80
2021/09/13 03:56:57;;;;;;;12.07;7.80;;;16.40;98.30;;;;;;5178302;23;20447;-80
2021/09/13 03:59:00;;;;;;;9.97;7.37;;;16.40;98.30;;;;;;5178896;23;20438;-80
2021/09/13 04:01:03;;;;;;;12.33;7.00;;;16.30;98.30;;;;;;5171652;23;20476;-80
2021/09/13 04:03:11;;;;;;;10.40;6.40;;;16.30;98.30;;;;;;5180315;23;20447;-80
2021/09/13 04:05:19;;;;;;;9.50;5.87;;;16.30;98.30;;;;;;5171392;23;20412;-80
2021/09/13 04:07:25;;;;;;;10.90;6.50;;;16.30;98.30;;;;;;5180228;23;20415;-80
2021/09/13 04:09:46;;;;;;;11.90;5.37;;;16.30;98.30;;;;;;5187474;23;20427;-80
2021/09/13 04:11:53;;;;;;;9.43;5.43;;;16.40;98.30;;;;;;5179982;23;20451;-81
2021/09/13 04:13:56;;;;;;;11.13;5.20;;;16.40;98.30;;;;;;5186814;23;20445;-80
2021/09/13 04:15:59;;;;;;;10.90;5.97;;;16.40;98.30;;;;;;5188060;23;20494;-80
2021/09/13 04:18:02;;;;;;;9.47;5.50;;;16.40;98.30;;;;;;5179545;23;20431;-80
2021/09/13 04:20:07;;;;;;;8.67;5.00;;;16.50;98.30;;;;;;5188127;23;20435;-80
2021/09/13 04:22:10;;;;;;;8.77;4.50;;;16.50;98.30;;;;;;5179336;23;20424;-81
2021/09/13 04:24:14;;;;;;;11.60;4.53;;;16.50;98.30;;;;;;5176098;23;20996;-80
2021/09/13 04:26:18;;;;;;;9.40;4.90;;;16.50;98.30;;;;;;5176716;23;20458;-80
2021/09/13 04:28:21;;;;;;;12.93;5.00;;;16.50;98.30;;;;;;5177113;23;20440;-80
2021/09/13 04:30:25;;;;;;;11.03;5.40;;;16.50;98.30;;;;;;5168126;23;20512;-80
2021/09/13 04:32:28;;;;;;;8.43;4.80;;;16.50;98.30;;;;;;5177002;23;20966;-80
2021/09/13 04:34:31;;;;;;;13.07;7.57;;;16.50;98.30;;;;;;5176534;23;20827;-81
2021/09/13 04:36:34;;;;;;;14.50;7.00;;;16.50;98.30;;;;;;5176652;23;20419;-81
2021/09/13 04:38:37;;;;;;;11.97;6.60;;;16.50;98.30;;;;;;5168532;23;20527;-81
2021/09/13 04:40:40;;;;;;;9.70;5.63;;;16.50;98.30;;;;;;5168066;23;20458;-82
2021/09/13 04:42:44;;;;;;;10.03;6.03;;;16.50;98.30;;;;;;5176502;23;20755;-81
2021/09/13 04:44:47;;;;;;;9.57;5.40;;;16.60;98.30;;;;;;5179964;23;20424;-82
2021/09/13 04:46:50;;;;;;;8.07;5.20;;;16.60;98.30;;;;;;5173670;23;20408;-82
2021/09/13 04:48:53;;;;;;;11.33;5.13;;;16.60;98.30;;;;;;5172443;23;20507;-82
2021/09/13 04:50:56;;;;;;;10.10;5.70;;;16.50;98.30;;;;;;5181871;23;20534;-82
2021/09/13 04:52:59;;;;;;;9.73;5.37;;;16.50;98.30;;;;;;5179879;23;20448;-80
2021/09/13 04:55:02;;;;;;;7.70;5.67;;;16.50;98.30;;;;;;5170213;23;20452;-81
2021/09/13 04:57:10;;;;;;;13.17;5.97;;;16.50;98.30;;;;;;5183018;23;20477;-84
2021/09/13 04:59:15;;;;;;;12.40;7.10;;;16.60;98.30;;;;;;5181016;23;20454;-82
2021/09/13 05:01:18;;;;;;;27.43;18.40;;;16.50;98.30;;;;;;5182932;23;20471;-82
2021/09/13 05:03:25;;;;;;;26.60;15.43;;;16.50;98.30;;;;;;5187842;23;20403;-82
2021/09/13 05:05:28;;;;;;;73.47;44.73;;;16.50;98.30;;;;;;5179633;23;20487;-82
2021/09/13 05:07:31;;;;;;;19.23;12.93;;;16.40;98.30;;;;;;5169960;23;20424;-82
2021/09/13 05:09:34;;;;;;;12.50;8.10;;;16.40;98.30;;;;;;5178249;23;20506;-81
2021/09/13 05:11:37;;;;;;;10.33;8.20;;;16.40;98.30;;;;;;5168915;23;20486;-82
2021/09/13 05:13:40;;;;;;;14.13;8.47;;;16.40;98.30;;;;;;5175960;23;20530;-82
2021/09/13 05:15:45;;;;;;;10.47;7.70;;;16.40;98.30;;;;;;5176099;23;20447;-82
2021/09/13 05:17:48;;;;;;;13.93;9.07;;;16.40;98.30;;;;;;5167835;23;20507;-82
2021/09/13 05:19:51;;;;;;;11.77;7.33;;;16.50;98.30;;;;;;5176108;23;20663;-81
2021/09/13 05:21:54;;;;;;;14.47;9.83;;;16.40;98.30;;;;;;5169155;23;20486;-81
2021/09/13 05:23:58;;;;;;;23.73;12.07;;;16.40;98.30;;;;;;5167974;23;20719;-81
2021/09/13 05:26:01;;;;;;;32.03;17.73;;;16.50;98.30;;;;;;5177344;23;20933;-82
2021/09/13 05:28:04;;;;;;;17.83;11.13;;;16.70;98.30;;;;;;5176846;23;20428;-82
2021/09/13 05:30:09;;;;;;;8.83;6.50;;;16.80;98.30;;;;;;5169558;23;20511;-82
2021/09/13 05:32:17;;;;;;;11.03;5.50;;;16.70;98.30;;;;;;5180434;23;20427;-82
2021/09/13 05:34:20;;;;;;;13.03;6.40;;;16.60;98.30;;;;;;5169405;23;21011;-82
2021/09/13 05:36:23;;;;;;;12.47;5.90;;;16.60;98.30;;;;;;5178804;23;20768;-82
2021/09/13 05:38:27;;;;;;;9.87;5.13;;;16.60;98.30;;;;;;5168599;23;20427;-81
2021/09/13 05:40:30;;;;;;;8.20;5.30;;;16.70;98.30;;;;;;5177883;23;20792;-82
2021/09/13 05:42:34;;;;;;;18.00;5.40;;;16.70;98.30;;;;;;5178878;23;20462;-82
2021/09/13 05:44:37;;;;;;;8.30;4.80;;;16.70;98.30;;;;;;5177659;23;20510;-82
2021/09/13 05:46:40;;;;;;;10.33;5.37;;;16.70;98.30;;;;;;5168872;23;20432;-82
2021/09/13 05:48:44;;;;;;;9.90;4.83;;;16.60;98.30;;;;;;5177809;23;20427;-81
2021/09/13 05:50:48;;;;;;;12.60;4.70;;;16.50;98.30;;;;;;5169315;23;20711;-81
2021/09/13 05:52:51;;;;;;;9.43;5.40;;;16.50;98.30;;;;;;5178167;23;20837;-82
2021/09/13 05:54:54;;;;;;;7.67;5.00;;;16.50;98.30;;;;;;5179913;23;20802;-81
2021/09/13 05:56:57;;;;;;;9.50;5.50;;;16.50;98.30;;;;;;5177976;23;20976;-82
2021/09/13 05:59:01;;;;;;;9.57;4.47;;;16.60;98.30;;;;;;5169416;23;20415;-82
2021/09/13 06:01:05;;;;;;;7.73;4.50;;;16.60;98.30;;;;;;5178531;23;20470;-82
2021/09/13 06:03:08;;;;;;;8.77;5.30;;;16.60;98.30;;;;;;5179072;23;20412;-82
2021/09/13 06:05:14;;;;;;;9.60;5.00;;;16.60;98.30;;;;;;5178705;23;20416;-82
2021/09/13 06:07:16;;;;;;;11.33;4.53;;;16.50;98.30;;;;;;5178154;23;20459;-81
2021/09/13 06:09:19;;;;;;;7.57;4.67;;;16.60;98.30;;;;;;5179279;23;21109;-82
2021/09/13 06:11:26;;;;;;;8.10;5.00;;;16.60;98.30;;;;;;5178610;23;20448;-82
2021/09/13 06:13:29;;;;;;;8.37;5.27;;;16.60;98.30;;;;;;5177960;23;20463;-82
2021/09/13 06:15:32;;;;;;;12.87;6.07;;;16.70;98.30;;;;;;5170384;23;20442;-81
2021/09/13 06:17:38;;;;;;;11.37;6.00;;;16.70;98.30;;;;;;5169419;23;20462;-82
2021/09/13 06:19:41;;;;;;;6.70;4.87;;;16.80;98.30;;;;;;5178786;23;20491;-82
2021/09/13 06:21:46;;;;;;;12.43;5.50;;;16.90;98.30;;;;;;5168360;23;21128;-82
2021/09/13 06:23:49;;;;;;;17.77;8.50;;;16.80;98.30;;;;;;5168264;23;21076;-82
2021/09/13 06:25:52;;;;;;;11.80;6.00;;;16.80;98.30;;;;;;5176273;23;20443;-82
2021/09/13 06:28:18;;;;;;;9.63;5.20;;;16.70;98.30;;;;;;5183785;23;20442;-82
2021/09/13 06:30:21;;;;;;;10.20;5.87;;;16.70;98.30;;;;;;5169012;23;20447;-82
2021/09/13 06:32:24;;;;;;;9.23;4.60;;;16.70;98.30;;;;;;5168798;23;20427;-82
2021/09/13 06:34:29;;;;;;;13.73;4.63;;;16.70;98.30;;;;;;5169797;23;20454;-82
2021/09/13 06:36:32;;;;;;;10.37;4.87;;;16.80;98.30;;;;;;5176863;23;20507;-82
2021/09/13 06:38:37;;;;;;;8.87;4.87;;;16.80;98.30;;;;;;5176422;23;20506;-82
2021/09/13 06:40:40;;;;;;;7.67;4.27;;;16.80;98.30;;;;;;5170161;23;20546;-82
2021/09/13 06:42:43;;;;;;;7.50;4.23;;;16.80;98.30;;;;;;5172831;23;20468;-82
2021/09/13 06:44:48;;;;;;;9.70;4.30;;;16.80;98.30;;;;;;5180339;23;20511;-82
2021/09/13 06:47:02;;;;;;;9.63;5.00;;;16.90;98.30;;;;;;5180932;23;20416;-82
2021/09/13 06:49:05;;;;;;;11.77;4.90;;;17.00;98.30;;;;;;5180532;23;21157;-82
2021/09/13 06:51:09;;;;;;;10.73;5.07;;;17.00;98.30;;;;;;5181684;23;20443;-82
2021/09/13 06:53:12;;;;;;;7.33;4.20;;;17.00;98.30;;;;;;5181232;23;20854;-82
2021/09/13 06:55:17;;;;;;;18.50;10.83;;;17.10;98.30;;;;;;5176679;23;20424;-82
2021/09/13 06:57:20;;;;;;;14.90;9.73;;;17.10;98.30;;;;;;5181390;23;20465;-82
2021/09/13 06:59:23;;;;;;;22.33;10.00;;;17.20;98.30;;;;;;5180479;23;20451;-82
2021/09/13 07:01:26;;;;;;;16.20;10.40;;;17.20;98.30;;;;;;5179715;23;20443;-82
2021/09/13 07:03:29;;;;;;;14.27;7.13;;;17.20;98.30;;;;;;5179351;23;20730;-82
2021/09/13 07:05:33;;;;;;;17.93;10.70;;;17.30;98.30;;;;;;5173141;23;20430;-82
2021/09/13 07:07:37;;;;;;;19.13;11.37;;;17.30;98.30;;;;;;5174660;23;20466;-82
2021/09/13 07:09:40;;;;;;;15.67;8.43;;;17.40;98.30;;;;;;5181469;23;20439;-82
2021/09/13 07:11:44;;;;;;;14.90;8.27;;;17.40;98.30;;;;;;5183020;23;20467;-81
2021/09/13 07:13:47;;;;;;;15.73;6.40;;;17.40;98.30;;;;;;5173650;23;20503;-82
2021/09/13 07:15:54;;;;;;;14.73;8.30;;;17.40;98.30;;;;;;5183354;23;20430;-81
2021/09/13 07:17:58;;;;;;;12.63;7.93;;;17.40;98.30;;;;;;5182438;23;20923;-82
2021/09/13 07:20:01;;;;;;;13.80;6.80;;;17.50;98.30;;;;;;5182706;23;20427;-82
2021/09/13 07:22:04;;;;;;;10.17;5.50;;;17.50;98.30;;;;;;5173503;23;20452;-82
2021/09/13 07:24:07;;;;;;;8.07;4.63;;;17.40;98.30;;;;;;5181591;23;20446;-82
2021/09/13 07:26:10;;;;;;;6.93;3.93;;;17.40;98.30;;;;;;5183073;23;20858;-83
2021/09/13 07:28:15;;;;;;;9.10;3.70;;;17.40;98.30;;;;;;5174668;23;20451;-82
2021/09/13 07:30:18;;;;;;;6.87;3.73;;;17.30;98.30;;;;;;5182698;23;20435;-82
2021/09/13 07:32:22;;;;;;;6.87;3.67;;;17.30;98.30;;;;;;5173458;23;20491;-82
2021/09/13 07:34:24;;;;;;;10.03;3.80;;;17.40;98.30;;;;;;5172377;23;20527;-82
2021/09/13 07:36:27;;;;;;;10.20;3.73;;;17.30;98.30;;;;;;5182296;23;20447;-82
2021/09/13 07:38:32;;;;;;;10.67;3.83;;;17.30;98.30;;;;;;5182109;23;20470;-82
2021/09/13 07:40:35;;;;;;;12.30;3.83;;;17.30;98.30;;;;;;5180853;23;20925;-82
2021/09/13 07:42:40;;;;;;;10.37;6.20;;;17.30;98.30;;;;;;5173234;23;20461;-82
2021/09/13 07:44:45;;;;;;;11.40;5.90;;;17.30;98.30;;;;;;5172493;23;20479;-82
2021/09/13 07:46:48;;;;;;;14.23;6.00;;;17.40;98.30;;;;;;5181797;23;20912;-82
2021/09/13 07:48:51;;;;;;;14.17;7.07;;;17.40;98.30;;;;;;5181490;23;20427;-82
2021/09/13 07:50:54;;;;;;;14.60;8.10;;;17.40;98.30;;;;;;5173811;23;20455;-82
2021/09/13 07:52:57;;;;;;;20.43;10.13;;;17.50;98.30;;;;;;5173343;23;20749;-82
2021/09/13 07:55:00;;;;;;;14.33;7.40;;;17.60;98.30;;;;;;5173986;23;20540;-82
2021/09/13 07:57:03;;;;;;;20.17;12.27;;;17.60;98.30;;;;;;5183656;23;20458;-82
2021/09/13 07:59:06;;;;;;;20.33;8.43;;;17.60;98.30;;;;;;5182246;23;20783;-82
2021/09/13 08:01:10;;;;;;;18.00;6.90;;;17.60;98.30;;;;;;5181766;23;20474;-82
2021/09/13 08:03:15;;;;;;;11.50;5.90;;;17.50;98.30;;;;;;5181164;23;20427;-82
2021/09/13 08:05:18;;;;;;;12.73;7.03;;;17.60;98.30;;;;;;5181694;23;20902;-82
2021/09/13 08:07:21;;;;;;;13.17;7.67;;;17.70;98.30;;;;;;5181467;23;20485;-82
2021/09/13 08:09:24;;;;;;;11.20;6.47;;;17.80;98.30;;;;;;5181022;23;20487;-82
2021/09/13 08:11:28;;;;;;;8.53;5.20;;;17.80;98.30;;;;;;5181444;23;20447;-82
2021/09/13 08:13:31;;;;;;;11.13;6.53;;;17.80;98.30;;;;;;5181236;23;20434;-82
2021/09/13 08:15:34;;;;;;;17.27;10.87;;;17.80;98.30;;;;;;5182701;23;20440;-82
2021/09/13 08:17:38;;;;;;;15.00;10.33;;;17.80;98.30;;;;;;5182293;23;20420;-82
2021/09/13 08:19:44;;;;;;;13.97;4.57;;;17.90;98.30;;;;;;5182033;23;20927;-82
2021/09/13 08:21:47;;;;;;;10.80;6.73;;;17.90;98.30;;;;;;5182765;23;20789;-82
2021/09/13 08:23:50;;;;;;;10.43;7.07;;;17.80;98.30;;;;;;5181720;23;21048;-82
2021/09/13 08:25:53;;;;;;;13.00;7.53;;;17.80;98.30;;;;;;5182669;23;20492;-82
2021/09/13 08:27:56;;;;;;;11.10;6.10;;;17.90;98.30;;;;;;5181361;23;20940;-82
2021/09/13 08:29:59;;;;;;;10.20;6.50;;;17.90;98.30;;;;;;5177906;23;20423;-82
2021/09/13 08:32:02;;;;;;;10.43;4.77;;;17.90;98.30;;;;;;5167743;23;20459;-82
2021/09/13 08:34:07;;;;;;;7.50;4.53;;;17.90;98.30;;;;;;5175701;23;20475;-82
2021/09/13 08:36:10;;;;;;;10.03;5.53;;;18.00;98.30;;;;;;5176159;23;20448;-82
2021/09/13 08:38:13;;;;;;;9.63;5.60;;;18.00;98.30;;;;;;5167944;23;20831;-82
2021/09/13 08:40:16;;;;;;;6.87;4.80;;;18.10;98.30;;;;;;5177630;23;20937;-82
2021/09/13 08:42:19;;;;;;;7.13;3.50;;;18.10;98.30;;;;;;5178732;23;20443;-82
2021/09/13 08:44:23;;;;;;;7.10;3.57;;;18.20;98.30;;;;;;5176469;23;20419;-82
2021/09/13 08:46:38;;;;;;;7.60;5.00;;;18.20;98.30;;;;;;5176537;23;20522;-81
2021/09/13 08:48:44;;;;;;;7.60;4.20;;;18.20;98.30;;;;;;5177734;23;20887;-82
2021/09/13 08:51:19;;;;;;;8.90;4.93;;;18.10;98.30;;;;;;5177861;23;20470;-82
2021/09/13 08:53:22;;;;;;;11.53;7.93;;;18.00;98.30;;;;;;5170175;23;20451;-82
2021/09/13 08:55:26;;;;;;;10.03;4.10;;;18.00;98.30;;;;;;5177152;23;20450;-82
2021/09/13 08:57:31;;;;;;;11.70;5.80;;;18.10;98.30;;;;;;5177864;23;20502;-82
2021/09/13 08:59:40;;;;;;;11.60;8.10;;;18.20;98.30;;;;;;5178419;23;20416;-82
2021/09/13 09:01:44;;;;;;;19.70;10.37;;;18.20;98.30;;;;;;5169938;23;20454;-82
2021/09/13 09:03:51;;;;;;;13.10;4.93;;;18.20;98.30;;;;;;5178232;23;20451;-82
2021/09/13 09:05:56;;;;;;;24.93;17.50;;;18.30;98.30;;;;;;5179072;23;20403;-82
2021/09/13 09:07:59;;;;;;;9.20;4.60;;;18.40;98.30;;;;;;5181589;23;20438;-82
2021/09/13 09:10:13;;;;;;;9.20;4.17;;;18.40;98.30;;;;;;5179440;23;20749;-82
2021/09/13 09:12:16;;;;;;;6.87;4.13;;;18.30;98.30;;;;;;5183734;23;20443;-82
2021/09/13 09:14:32;;;;;;;8.83;5.27;;;18.10;98.30;;;;;;5173634;23;20511;-82
2021/09/13 09:16:35;;;;;;;8.30;4.00;;;18.10;98.30;;;;;;5184089;23;20420;-82
2021/09/13 09:18:39;;;;;;;10.63;5.70;;;18.00;98.30;;;;;;5184322;23;20416;-82
2021/09/13 09:20:44;;;;;;;9.47;4.67;;;17.90;98.30;;;;;;5184021;23;20471;-82
2021/09/13 09:22:59;;;;;;;10.30;4.90;;;17.90;98.30;;;;;;5182811;23;20892;-82
2021/09/13 09:25:05;;;;;;;7.70;3.87;;;18.00;98.30;;;;;;5182911;23;20408;-82
2021/09/13 09:27:08;;;;;;;12.40;3.10;;;18.10;98.30;;;;;;5182793;23;20431;-82
2021/09/13 09:29:27;;;;;;;6.10;2.77;;;18.10;98.30;;;;;;5182264;23;20459;-82
2021/09/13 09:31:37;;;;;;;6.20;3.10;;;17.90;98.30;;;;;;5183360;23;20447;-82
2021/09/13 09:33:41;;;;;;;7.40;3.20;;;17.90;98.30;;;;;;5174729;23;20424;-82
2021/09/13 09:35:46;;;;;;;7.97;3.20;;;18.00;98.30;;;;;;5187523;23;20463;-82
2021/09/13 09:37:51;;;;;;;4.83;2.90;;;18.00;98.30;;;;;;5190460;23;20690;-84
2021/09/13 09:39:59;;;;;;;6.90;2.97;;;18.00;98.30;;;;;;5187729;23;20948;-81
2021/09/13 09:42:03;;;;;;;5.67;3.87;;;17.80;98.30;;;;;;5181290;23;20428;-81
2021/09/13 09:44:07;;;;;;;5.83;3.20;;;17.80;98.30;;;;;;5176908;23;20527;-82
2021/09/13 09:46:12;;;;;;;7.83;3.50;;;17.70;98.30;;;;;;5176950;23;20439;-82
2021/09/13 09:48:15;;;;;;;6.13;3.00;;;17.80;98.30;;;;;;5168738;23;20439;-82
2021/09/13 09:50:29;;;;;;;8.43;3.70;;;17.70;98.30;;;;;;5168834;23;20471;-82
2021/09/13 09:52:37;;;;;;;6.70;3.60;;;17.70;98.30;;;;;;5176675;23;20404;-82
2021/09/13 09:54:42;;;;;;;6.43;3.30;;;17.70;98.30;;;;;;5168672;23;20495;-82
2021/09/13 09:56:46;;;;;;;9.07;3.33;;;17.60;98.30;;;;;;5168959;23;20516;-84
2021/09/13 09:59:00;;;;;;;7.30;3.27;;;17.50;98.30;;;;;;5176598;23;20424;-82
2021/09/13 10:01:03;;;;;;;6.90;3.30;;;17.60;98.30;;;;;;5176945;23;20444;-82
2021/09/13 10:03:08;;;;;;;7.50;3.90;;;17.60;98.30;;;;;;5168321;23;20921;-81
2021/09/13 10:05:11;;;;;;;8.33;3.90;;;17.60;98.30;;;;;;5176873;23;20416;-81
2021/09/13 10:07:17;;;;;;;6.10;3.73;;;17.60;98.30;;;;;;5177087;23;20470;-81
2021/09/13 10:09:21;;;;;;;5.47;3.40;;;17.60;98.30;;;;;;5177014;23;20451;-82
2021/09/13 10:11:26;;;;;;;5.93;3.20;;;17.50;98.30;;;;;;5168784;23;20478;-82
2021/09/13 10:13:32;;;;;;;7.70;3.40;;;17.50;98.30;;;;;;5167819;23;20459;-81
2021/09/13 10:15:35;;;;;;;9.03;3.60;;;17.50;98.30;;;;;;5177194;23;20424;-82
2021/09/13 10:17:38;;;;;;;6.67;3.70;;;17.50;98.30;;;;;;5176684;23;20447;-82
2021/09/13 10:19:43;;;;;;;8.70;4.13;;;17.60;98.30;;;;;;5176721;23;20497;-81
2021/09/13 10:21:47;;;;;;;5.40;3.53;;;17.70;98.30;;;;;;5176257;23;20455;-82
2021/09/13 10:23:50;;;;;;;7.20;4.40;;;17.80;98.30;;;;;;5178039;23;21175;-82
2021/09/13 10:25:53;;;;;;;10.43;3.67;;;17.90;98.30;;;;;;5176692;23;20427;-82
2021/09/13 10:28:04;;;;;;;11.83;5.47;;;17.80;98.30;;;;;;5176414;23;20459;-82
2021/09/13 10:30:19;;;;;;;8.13;3.83;;;17.90;98.30;;;;;;5176811;23;20431;-82
2021/09/13 10:32:30;;;;;;;11.67;6.53;;;18.10;98.30;;;;;;5176371;23;20442;-82
2021/09/13 10:34:35;;;;;;;19.13;8.97;;;18.20;98.30;;;;;;5176609;23;20835;-82
2021/09/13 10:37:00;;;;;;;17.63;9.83;;;18.40;98.30;;;;;;5176447;23;20455;-82
2021/09/13 10:39:08;;;;;;;11.53;4.10;;;18.50;98.30;;;;;;5176688;23;20419;-82
2021/09/13 10:41:11;;;;;;;7.50;3.57;;;18.70;98.30;;;;;;5170949;23;20443;-82
2021/09/13 10:43:20;;;;;;;8.43;3.63;;;18.70;98.30;;;;;;5179851;23;20502;-82
2021/09/13 10:45:29;;;;;;;8.70;4.30;;;18.70;98.30;;;;;;5179108;23;20451;-82
2021/09/13 10:47:34;;;;;;;6.43;4.20;;;18.80;98.30;;;;;;5178785;23;20765;-82